Aeroporto :
LOGIN :

Iscrizione | Disclaimer

   EN    FR    IT 

 










Sommario :    VFR   VFR Marginale   IFR   IFR Intensivo   IFR Molto Intensivo
Visibilità : 
Base nubi : 
>= 8 km
>= 3000ft
5 / 8 km
1000 / 3000 ft
1500m / 5 km
500 / 1000 ft
800 / 1500m
200 / 500 ft
< 800m
< 200 ft
Simboli :   Temporali  Nebbia  Neve Forte  Precipitazioni Forti  Vento > 20 kt
SIGMETs :   Varie  Temporali  Ghiacco  Turbolenza  Onda orograficha  Ceneri Vulcaniche






- Altitudine del aeroporto : 202 ft
- Codice IATA : SQZ


EGXP - RAF Scampton

ULTIMO METAR :
  • 240750Z AUTO 21015KT 9999 // FEW026/// BKN100/// 10/08 Q1015

METARs OBSOLETI :
  • 240650Z AUTO 21012KT 9999 // FEW027/// OVC090/// 10/08 Q1015
  • 240550Z AUTO 23013KT 9999 // BKN026/// SCT090/// 09/08 Q1015

TAF TAF EGXP
Valido dal 24 a 09 ore il 24 a 18 ore UTC


240731Z 2409/2418 20014KT 9999 FEW020 SCT025
TEMPO 2409/2418 BKN020
PROB30
TEMPO 2409/2415 SCT012
PROB30
TEMPO 2410/2417 18015G25KT



MetMap, La meteo Aeronautica in un colpo d'occhio ! - Copyright ORBIFLY Dicembre 2007 - Disclaimer

ORBIFLY MET'MAP TEAM :

Programmazione e sviluppo : Alexandra Zaïnal
Concezione : Baudouin d'Aumeries
Aiuto per la programmazione : Marc-Olivier Méhu
Supporto tecnico e logistico : Manuel Goepfert
Aiuto per la traduzione : Arnaldo La Scala

Contatto : metmap@orbifly.com




FONTI E CREDITI :

   NOAA